Terminal Aerodrome Forecast
Issued by NWS

Home | Current Version | Previous Version | Text Only | Print | Product List | Glossary On
Versions: 1 2 3 4 5 6 7 8 9 10 11 12 13 14 15 16 17 18 19 20 21 22 23 24 25 26 27 28 29 30 31 32 33
000
FTUS41 KCAR 181932 AAA
TAFFVE
TAF AMD
KFVE 181932Z 1820/1918 35020G30KT 3SM -SN BR FEW010 OVC035
     FM182200 31016G24KT 5SM -SHSN OVC020
     FM190400 30014G22KT P6SM VCSH OVC025
     FM191200 33012KT P6SM SCT020 OVC030=

USA.gov is the U.S. government's official web portal to all federal, state and local government web resources and services.